Terminal Aerodrome Forecast
Issued by NWS Binghamton, NY

Home | Current Version | Previous Version | Text Only | Print | Product List | Glossary On
Versions: 1 2 3 4 5 6 7 8 9 10 11 12 13 14 15 16 17 18 19 20 21 22 23 24 25 26 27 28 29 30 31 32 33 34
000
FTUS41 KBGM 251742
TAFAVP
TAF
KAVP 251742Z 2518/2618 27007KT P6SM FEW035 SCT045
     FM252200 29008KT P6SM FEW045 SCT060
     FM260400 VRB04KT P6SM FEW250
      TEMPO 2608/2610 5SM BR
     FM261700 25006KT P6SM FEW250=

USA.gov is the U.S. government's official web portal to all federal, state and local government web resources and services.